Time;durP1;ratioP1;P1;durP2;ratioP2;P2;SDS_P1;SDS_P2;PMS_P1;PMS_P2;Temp;Humidity;BMP_temperature;BMP_pressure;BME280_temperature;BME280_humidity;BME280_pressure;Samples;Min_cycle;Max_cycle;Signal;HPM_P1;HPM_P2
2022/08/25 00:00:59;0.00;0.00;0.62;0.00;0.00;0.62;6.00;5.40;;;30.80;26.00;;;;;;2241603;62;20362;-68
2022/08/25 00:03:46;0.00;0.00;0.62;0.00;0.00;0.62;5.50;5.00;;;30.80;26.00;;;;;;2242248;62;20362;-67
2022/08/25 00:06:32;0.00;0.00;0.62;0.00;0.00;0.62;5.20;4.40;;;30.80;26.10;;;;;;2241572;61;20401;-63
2022/08/25 00:09:21;0.00;0.00;0.62;0.00;0.00;0.62;5.13;4.53;;;30.70;26.00;;;;;;2241478;62;20382;-62
2022/08/25 00:12:06;0.00;0.00;0.62;0.00;0.00;0.62;7.17;5.23;;;30.70;26.10;;;;;;2242357;62;20366;-65
2022/08/25 00:14:51;0.00;0.00;0.62;0.00;0.00;0.62;5.97;4.60;;;30.70;26.20;;;;;;2242106;62;20630;-64
2022/08/25 00:17:37;0.00;0.00;0.62;0.00;0.00;0.62;5.20;4.70;;;30.70;26.30;;;;;;2473557;54;20387;-60
2022/08/25 00:20:24;0.00;0.00;0.62;0.00;0.00;0.62;6.90;4.63;;;30.70;26.20;;;;;;2241780;62;20358;-65
2022/08/25 00:23:09;0.00;0.00;0.62;0.00;0.00;0.62;5.23;4.73;;;30.70;26.30;;;;;;2241418;62;20375;-62
2022/08/25 00:25:54;0.00;0.00;0.62;0.00;0.00;0.62;5.30;4.10;;;30.60;26.30;;;;;;2242025;61;20418;-63
2022/08/25 00:28:39;0.00;0.00;0.62;0.00;0.00;0.62;5.47;4.93;;;30.60;26.40;;;;;;2241840;62;20383;-62
2022/08/25 00:31:24;0.00;0.00;0.62;0.00;0.00;0.62;5.90;4.70;;;30.60;26.40;;;;;;2241404;62;20394;-62
2022/08/25 00:34:14;0.00;0.00;0.62;0.00;0.00;0.62;6.93;5.03;;;30.60;26.40;;;;;;2242072;62;20374;-63
2022/08/25 00:37:01;0.00;0.00;0.62;0.00;0.00;0.62;6.23;4.60;;;30.50;26.30;;;;;;2241990;62;20727;-66
2022/08/25 00:39:46;0.00;0.00;0.62;0.00;0.00;0.62;7.20;5.20;;;30.50;26.40;;;;;;2241493;62;20483;-64
2022/08/25 00:42:30;0.00;0.00;0.62;0.00;0.00;0.62;5.67;5.07;;;30.50;26.50;;;;;;2241835;62;20380;-64
2022/08/25 00:45:15;0.00;0.00;0.62;0.00;0.00;0.62;5.73;4.33;;;30.50;26.50;;;;;;2241492;61;20378;-61
2022/08/25 00:48:01;0.00;0.00;0.62;0.00;0.00;0.62;4.87;4.40;;;30.50;26.60;;;;;;2242137;62;20374;-63
2022/08/25 00:50:46;0.00;0.00;0.62;0.00;0.00;0.62;7.40;5.40;;;30.50;27.20;;;;;;2241767;62;20746;-63
2022/08/25 00:53:32;0.00;0.00;0.62;0.00;0.00;0.62;5.93;4.83;;;30.40;26.70;;;;;;2241243;62;20359;-66
2022/08/25 00:56:18;0.00;0.00;0.62;0.00;0.00;0.62;5.93;4.73;;;30.40;26.80;;;;;;2241970;61;20386;-65
2022/08/25 00:59:04;0.00;0.00;0.62;0.00;0.00;0.62;8.87;5.27;;;30.40;26.90;;;;;;2241936;62;20422;-64
2022/08/25 01:01:50;0.00;0.00;0.62;0.00;0.00;0.62;11.23;5.53;;;30.40;26.90;;;;;;2241572;62;20374;-65
2022/08/25 01:04:36;0.00;0.00;0.62;0.00;0.00;0.62;5.20;4.70;;;30.30;27.00;;;;;;2241730;62;20363;-62
2022/08/25 01:07:22;0.00;0.00;0.62;0.00;0.00;0.62;18.47;6.40;;;30.30;27.10;;;;;;2310066;54;20398;-63
2022/08/25 01:10:10;0.00;0.00;0.62;0.00;0.00;0.62;6.10;5.50;;;30.30;27.20;;;;;;2242052;62;20358;-65
2022/08/25 01:13:05;0.00;0.00;0.62;0.00;0.00;0.62;6.47;5.70;;;30.20;27.30;;;;;;2241885;62;20589;-65
2022/08/25 01:15:53;0.00;0.00;0.62;0.00;0.00;0.62;5.70;5.10;;;30.20;27.40;;;;;;2242948;61;20410;-64
2022/08/25 01:18:45;0.00;0.00;0.62;0.00;0.00;0.62;6.73;5.70;;;30.10;27.40;;;;;;2245925;61;20390;-62
2022/08/25 01:21:38;0.00;0.00;0.62;0.00;0.00;0.62;5.73;5.23;;;30.10;27.40;;;;;;2245501;61;20357;-62
2022/08/25 01:24:35;0.00;0.00;0.62;0.00;0.00;0.62;7.40;5.27;;;30.10;27.40;;;;;;2245805;61;20370;-64
2022/08/25 01:27:19;0.00;0.00;0.62;0.00;0.00;0.62;6.23;5.30;;;30.00;27.40;;;;;;2468351;54;20400;-66
2022/08/25 01:30:05;0.00;0.00;0.62;0.00;0.00;0.62;6.60;5.40;;;30.00;27.50;;;;;;2237037;62;20381;-64
2022/08/25 01:32:51;0.00;0.00;0.62;0.00;0.00;0.62;8.43;5.60;;;30.00;27.50;;;;;;2238054;62;20578;-63
2022/08/25 01:35:36;0.00;0.00;0.62;0.00;0.00;0.62;7.00;6.27;;;29.90;27.70;;;;;;2238820;62;20374;-65
2022/08/25 01:38:22;0.00;0.00;0.62;0.00;0.00;0.62;9.20;5.63;;;29.90;27.80;;;;;;2241263;62;20394;-65
2022/08/25 01:41:06;0.00;0.00;0.62;0.00;0.00;0.62;6.33;5.10;;;29.90;28.00;;;;;;2241561;62;20706;-63
2022/08/25 01:43:57;0.00;0.00;0.62;0.00;0.00;0.62;8.40;5.50;;;29.80;27.90;;;;;;2241845;62;20574;-65
2022/08/25 01:46:43;0.00;0.00;0.62;0.00;0.00;0.62;6.10;5.50;;;29.80;27.80;;;;;;2241623;61;20447;-65
2022/08/25 01:49:28;0.00;0.00;0.62;0.00;0.00;0.62;6.93;4.97;;;29.80;27.70;;;;;;2241524;62;20395;-66
2022/08/25 01:52:22;0.00;0.00;0.62;0.00;0.00;0.62;5.33;4.80;;;29.70;27.60;;;;;;2241273;62;20642;-64
2022/08/25 01:55:08;0.00;0.00;0.62;0.00;0.00;0.62;4.87;4.30;;;29.80;27.60;;;;;;2241587;61;20354;-63
2022/08/25 01:57:54;0.00;0.00;0.62;0.00;0.00;0.62;5.73;4.90;;;29.80;27.60;;;;;;2241636;62;20794;-63
2022/08/25 02:00:44;0.00;0.00;0.62;0.00;0.00;0.62;5.27;4.77;;;29.80;27.50;;;;;;2241135;62;20362;-60
2022/08/25 02:03:29;0.00;0.00;0.62;0.00;0.00;0.62;5.83;5.03;;;29.80;27.40;;;;;;2241508;62;20390;-62
2022/08/25 02:06:18;0.00;0.00;0.62;0.00;0.00;0.62;5.30;4.80;;;29.80;27.40;;;;;;2241318;61;20402;-61
2022/08/25 02:09:09;0.00;0.00;0.62;0.00;0.00;0.62;8.80;6.03;;;29.80;27.30;;;;;;2241501;62;20374;-62
2022/08/25 02:11:55;0.00;0.00;0.62;0.00;0.00;0.62;4.73;4.33;;;29.80;27.40;;;;;;2241571;62;20411;-64
2022/08/25 02:14:40;0.00;0.00;0.62;0.00;0.00;0.62;5.00;4.60;;;29.80;27.40;;;;;;2241027;61;20378;-63
2022/08/25 02:17:25;0.00;0.00;0.62;0.00;0.00;0.62;5.90;5.30;;;29.80;27.40;;;;;;2473469;54;20378;-62
2022/08/25 02:20:10;0.00;0.00;0.62;0.00;0.00;0.62;5.60;5.10;;;29.80;27.40;;;;;;2241638;62;20410;-62
2022/08/25 02:22:55;0.00;0.00;0.62;0.00;0.00;0.62;4.50;3.97;;;29.80;27.40;;;;;;2241032;62;20358;-63
2022/08/25 02:25:41;0.00;0.00;0.62;0.00;0.00;0.62;4.27;3.87;;;29.80;27.30;;;;;;2241584;62;20441;-63
2022/08/25 02:28:27;0.00;0.00;0.62;0.00;0.00;0.62;5.87;4.90;;;29.90;27.40;;;;;;2241468;62;20418;-63
2022/08/25 02:31:13;0.00;0.00;0.62;0.00;0.00;0.62;5.00;4.50;;;29.90;27.30;;;;;;2241409;62;20410;-63
2022/08/25 02:33:58;0.00;0.00;0.62;0.00;0.00;0.62;5.03;4.53;;;29.90;27.40;;;;;;2241509;62;20394;-64
2022/08/25 02:36:43;0.00;0.00;0.62;0.00;0.00;0.62;6.43;4.97;;;29.90;27.30;;;;;;2240738;61;20451;-65
2022/08/25 02:39:27;0.00;0.00;0.62;0.00;0.00;0.62;5.60;4.83;;;29.90;27.40;;;;;;2241789;62;20773;-62
2022/08/25 02:42:13;0.00;0.00;0.62;0.00;0.00;0.62;4.83;4.33;;;29.90;27.30;;;;;;2241202;62;20479;-63
2022/08/25 02:44:59;0.00;0.00;0.62;0.00;0.00;0.62;5.00;4.50;;;29.90;27.30;;;;;;2240325;61;20405;-63
2022/08/25 02:47:44;0.00;0.00;0.62;0.00;0.00;0.62;4.97;4.50;;;29.90;27.30;;;;;;2241503;62;20746;-63
2022/08/25 02:50:29;0.00;0.00;0.62;0.00;0.00;0.62;4.90;4.47;;;29.90;27.30;;;;;;2241692;62;20363;-65
2022/08/25 02:53:14;0.00;0.00;0.62;0.00;0.00;0.62;5.77;5.20;;;29.90;27.30;;;;;;2241351;62;20434;-63
2022/08/25 02:55:59;0.00;0.00;0.62;0.00;0.00;0.62;5.67;5.17;;;29.90;27.30;;;;;;2241346;61;20703;-61
2022/08/25 02:58:45;0.00;0.00;0.62;0.00;0.00;0.62;6.30;5.70;;;29.90;27.30;;;;;;2240853;62;20711;-63
2022/08/25 03:01:31;0.00;0.00;0.62;0.00;0.00;0.62;5.67;5.17;;;30.00;27.40;;;;;;2241644;62;20476;-65
2022/08/25 03:04:17;0.00;0.00;0.62;0.00;0.00;0.62;5.40;4.90;;;30.00;27.40;;;;;;2241452;62;20370;-64
2022/08/25 03:07:02;0.00;0.00;0.62;0.00;0.00;0.62;5.17;4.53;;;30.00;27.40;;;;;;2240789;62;20433;-63
2022/08/25 03:09:47;0.00;0.00;0.62;0.00;0.00;0.62;4.57;4.17;;;30.00;27.40;;;;;;2241512;62;20358;-63
2022/08/25 03:12:34;0.00;0.00;0.62;0.00;0.00;0.62;5.70;5.10;;;30.00;27.40;;;;;;2241605;62;20379;-64
2022/08/25 03:15:19;0.00;0.00;0.62;0.00;0.00;0.62;5.97;5.37;;;30.00;27.30;;;;;;2241235;62;20373;-61
2022/08/25 03:18:05;0.00;0.00;0.62;0.00;0.00;0.62;5.47;4.57;;;30.00;27.40;;;;;;2241563;62;20394;-65
2022/08/25 03:20:50;0.00;0.00;0.62;0.00;0.00;0.62;5.73;5.00;;;30.00;27.40;;;;;;2241541;62;20759;-61
2022/08/25 03:23:35;0.00;0.00;0.62;0.00;0.00;0.62;5.20;4.70;;;30.00;27.40;;;;;;2242406;62;20362;-62
2022/08/25 03:29:25;0.00;0.00;0.62;0.00;0.00;0.62;5.70;5.20;;;30.10;27.50;;;;;;2241754;62;20460;-60
2022/08/25 03:32:10;0.00;0.00;0.62;0.00;0.00;0.62;5.50;4.80;;;30.10;27.40;;;;;;2241971;62;20371;-65
2022/08/25 03:34:56;0.00;0.00;0.62;0.00;0.00;0.62;5.40;4.90;;;30.10;27.40;;;;;;2241947;61;20342;-63
2022/08/25 03:37:41;0.00;0.00;0.62;0.00;0.00;0.62;5.70;5.20;;;30.10;27.40;;;;;;2242050;62;20759;-63
2022/08/25 03:40:27;0.00;0.00;0.62;0.00;0.00;0.62;5.10;4.60;;;30.10;27.40;;;;;;2241933;62;20464;-66
2022/08/25 03:43:12;0.00;0.00;0.62;0.00;0.00;0.62;7.73;6.10;;;30.10;27.40;;;;;;2241075;62;20626;-63
2022/08/25 03:45:56;0.00;0.00;0.62;0.00;0.00;0.62;5.40;4.90;;;30.10;27.40;;;;;;2242179;62;20430;-64
2022/08/25 03:48:41;0.00;0.00;0.62;0.00;0.00;0.62;6.43;5.20;;;30.10;27.40;;;;;;2241958;62;20418;-63
2022/08/25 03:51:31;0.00;0.00;0.62;0.00;0.00;0.62;5.57;5.07;;;30.10;27.50;;;;;;2241476;62;20393;-67
2022/08/25 03:54:21;0.00;0.00;0.62;0.00;0.00;0.62;7.77;5.37;;;30.10;27.40;;;;;;2241839;62;20371;-65
2022/08/25 03:57:06;0.00;0.00;0.62;0.00;0.00;0.62;6.03;5.43;;;30.10;27.50;;;;;;2241973;62;20563;-64
2022/08/25 03:59:51;0.00;0.00;0.62;0.00;0.00;0.62;5.80;5.17;;;30.10;27.50;;;;;;2241778;62;20418;-62
2022/08/25 04:02:36;0.00;0.00;0.62;0.00;0.00;0.62;6.37;5.77;;;30.10;27.50;;;;;;2241835;62;20406;-61
2022/08/25 04:05:21;0.00;0.00;0.62;0.00;0.00;0.62;5.50;5.00;;;30.10;27.40;;;;;;2241409;61;20743;-61
2022/08/25 04:08:08;0.00;0.00;0.62;0.00;0.00;0.62;5.20;4.70;;;30.20;27.50;;;;;;2242060;62;20670;-62
2022/08/25 04:10:54;0.00;0.00;0.62;0.00;0.00;0.62;6.70;5.80;;;30.10;27.40;;;;;;2241796;62;20382;-62
2022/08/25 04:13:41;0.00;0.00;0.62;0.00;0.00;0.62;5.40;4.90;;;30.20;27.50;;;;;;2241549;62;20390;-64
2022/08/25 04:16:30;0.00;0.00;0.62;0.00;0.00;0.62;5.80;4.73;;;30.20;27.60;;;;;;2241663;61;20399;-64
2022/08/25 04:19:14;0.00;0.00;0.62;0.00;0.00;0.62;6.40;5.60;;;30.20;27.50;;;;;;2242098;62;20369;-62
2022/08/25 04:21:59;0.00;0.00;0.62;0.00;0.00;0.62;6.37;5.67;;;30.20;27.50;;;;;;2241985;62;20359;-62
2022/08/25 04:24:46;0.00;0.00;0.62;0.00;0.00;0.62;5.43;4.93;;;30.20;27.50;;;;;;2241776;62;20593;-64
2022/08/25 04:27:31;0.00;0.00;0.62;0.00;0.00;0.62;6.10;5.43;;;30.20;27.40;;;;;;2657643;46;20387;-63
2022/08/25 04:30:17;0.00;0.00;0.62;0.00;0.00;0.62;6.10;5.50;;;30.20;27.50;;;;;;2238064;62;20723;-62
2022/08/25 04:33:01;0.00;0.00;0.62;0.00;0.00;0.62;8.40;5.70;;;30.20;27.50;;;;;;2237875;62;20435;-66
2022/08/25 04:35:48;0.00;0.00;0.62;0.00;0.00;0.62;9.10;5.60;;;30.20;27.50;;;;;;2238900;61;20414;-63
2022/08/25 04:38:33;0.00;0.00;0.62;0.00;0.00;0.62;5.90;5.30;;;30.20;27.50;;;;;;2242022;62;20382;-62
2022/08/25 04:41:23;0.00;0.00;0.62;0.00;0.00;0.62;6.30;5.70;;;30.20;27.50;;;;;;2242047;62;20402;-62
2022/08/25 04:44:07;0.00;0.00;0.62;0.00;0.00;0.62;6.20;5.40;;;30.20;27.50;;;;;;2241647;62;20363;-61
2022/08/25 04:46:52;0.00;0.00;0.62;0.00;0.00;0.62;5.43;4.93;;;30.20;27.50;;;;;;2241498;62;20414;-65
2022/08/25 04:49:37;0.00;0.00;0.62;0.00;0.00;0.62;6.37;5.73;;;30.20;27.50;;;;;;2241363;62;20362;-65
2022/08/25 04:52:22;0.00;0.00;0.62;0.00;0.00;0.62;6.00;5.40;;;30.20;27.60;;;;;;2241685;62;20598;-62
2022/08/25 04:55:07;0.00;0.00;0.62;0.00;0.00;0.62;6.13;5.60;;;30.20;27.60;;;;;;2241574;61;20366;-62
2022/08/25 04:57:53;0.00;0.00;0.62;0.00;0.00;0.62;6.60;5.90;;;30.20;27.60;;;;;;2238216;62;20798;-64
2022/08/25 05:00:39;0.00;0.00;0.62;0.00;0.00;0.62;6.73;6.10;;;30.20;27.60;;;;;;2242012;62;20616;-64
2022/08/25 05:03:24;0.00;0.00;0.62;0.00;0.00;0.62;7.00;6.10;;;30.20;27.70;;;;;;2242131;62;20775;-63
2022/08/25 05:06:10;0.00;0.00;0.62;0.00;0.00;0.62;5.87;5.10;;;30.20;27.70;;;;;;2241339;61;20455;-64
2022/08/25 05:08:56;0.00;0.00;0.62;0.00;0.00;0.62;6.57;5.97;;;30.20;28.30;;;;;;2241772;62;20378;-64
2022/08/25 05:11:40;0.00;0.00;0.62;0.00;0.00;0.62;7.60;6.87;;;30.20;27.70;;;;;;2241522;62;20443;-65
2022/08/25 05:14:27;0.00;0.00;0.62;0.00;0.00;0.62;6.33;5.70;;;30.20;27.70;;;;;;2242213;62;20435;-65
2022/08/25 05:17:12;0.00;0.00;0.62;0.00;0.00;0.62;7.90;6.60;;;30.20;27.90;;;;;;2241657;62;20446;-65
2022/08/25 05:19:57;0.00;0.00;0.62;0.00;0.00;0.62;6.60;6.00;;;30.20;27.80;;;;;;2241225;62;20386;-65
2022/08/25 05:22:44;0.00;0.00;0.62;0.00;0.00;0.62;7.23;6.60;;;30.20;27.90;;;;;;2242059;62;20734;-62
2022/08/25 05:25:29;0.00;0.00;0.62;0.00;0.00;0.62;6.70;6.10;;;30.20;27.80;;;;;;2241820;61;20367;-61
2022/08/25 05:28:14;0.00;0.00;0.62;0.00;0.00;0.62;7.57;6.87;;;30.20;27.80;;;;;;2241261;62;20414;-64
2022/08/25 05:31:03;0.00;0.00;0.62;0.00;0.00;0.62;8.97;6.70;;;30.20;27.90;;;;;;2241647;62;20402;-66
2022/08/25 05:33:48;0.00;0.00;0.62;0.00;0.00;0.62;7.70;6.30;;;30.20;28.00;;;;;;2241612;62;20351;-66
2022/08/25 05:36:33;0.00;0.00;0.62;0.00;0.00;0.62;9.60;6.80;;;30.20;28.10;;;;;;2241756;62;20390;-65
2022/08/25 05:39:18;0.00;0.00;0.62;0.00;0.00;0.62;7.70;6.90;;;30.20;28.10;;;;;;2241746;62;20426;-64
2022/08/25 05:42:03;0.00;0.00;0.62;0.00;0.00;0.62;7.63;6.47;;;30.20;28.20;;;;;;2241275;62;20358;-69
2022/08/25 05:44:48;0.00;0.00;0.62;0.00;0.00;0.62;9.67;6.97;;;30.20;28.20;;;;;;2242005;62;20362;-66
2022/08/25 05:47:34;0.00;0.00;0.62;0.00;0.00;0.62;8.50;7.17;;;30.20;28.30;;;;;;2468658;54;20411;-65
2022/08/25 05:50:19;0.00;0.00;0.62;0.00;0.00;0.62;7.47;6.77;;;30.20;28.40;;;;;;2237128;62;20728;-65
2022/08/25 05:53:04;0.00;0.00;0.62;0.00;0.00;0.62;7.23;6.53;;;30.20;28.50;;;;;;2237744;62;20359;-68
2022/08/25 05:55:50;0.00;0.00;0.62;0.00;0.00;0.62;8.27;6.70;;;30.20;28.40;;;;;;2239142;61;20378;-64
2022/08/25 05:58:36;0.00;0.00;0.62;0.00;0.00;0.62;7.63;6.93;;;30.20;28.40;;;;;;2242011;62;20738;-66
2022/08/25 06:04:30;0.00;0.00;0.62;0.00;0.00;0.62;10.83;7.13;;;30.20;28.60;;;;;;2241204;62;20731;-69
2022/08/25 06:07:14;0.00;0.00;0.62;0.00;0.00;0.62;7.43;6.57;;;30.20;28.60;;;;;;2241750;62;20409;-65
2022/08/25 06:09:59;0.00;0.00;0.62;0.00;0.00;0.62;7.33;6.63;;;30.20;28.60;;;;;;2244107;61;20388;-64
2022/08/25 06:12:45;0.00;0.00;0.62;0.00;0.00;0.62;7.87;6.43;;;30.20;28.60;;;;;;2241358;62;20359;-64
2022/08/25 06:15:32;0.00;0.00;0.62;0.00;0.00;0.62;10.83;7.60;;;30.20;28.50;;;;;;2241371;62;20462;-63
2022/08/25 06:18:17;0.00;0.00;0.62;0.00;0.00;0.62;7.53;6.67;;;30.20;28.60;;;;;;2241221;62;20389;-66
2022/08/25 06:21:11;0.00;0.00;0.62;0.00;0.00;0.62;7.00;6.37;;;30.20;28.70;;;;;;2241996;62;20403;-65
2022/08/25 06:23:56;0.00;0.00;0.62;0.00;0.00;0.62;7.53;6.83;;;30.20;28.70;;;;;;2241500;62;20605;-55
2022/08/25 06:26:41;0.00;0.00;0.62;0.00;0.00;0.62;13.00;7.87;;;30.20;28.70;;;;;;2241024;61;20745;-63
2022/08/25 06:29:26;0.00;0.00;0.62;0.00;0.00;0.62;10.57;8.20;;;30.30;29.00;;;;;;2241904;62;20383;-62
2022/08/25 06:32:11;0.00;0.00;0.62;0.00;0.00;0.62;8.40;7.57;;;30.20;29.10;;;;;;2241767;62;20407;-63
2022/08/25 06:34:57;0.00;0.00;0.62;0.00;0.00;0.62;9.87;8.20;;;30.20;29.20;;;;;;2241276;61;20395;-65
2022/08/25 06:37:44;0.00;0.00;0.62;0.00;0.00;0.62;10.63;7.83;;;30.20;29.40;;;;;;2245436;61;20381;-65
2022/08/25 06:40:29;0.00;0.00;0.62;0.00;0.00;0.62;8.23;7.07;;;30.20;29.50;;;;;;2245139;61;20381;-60
2022/08/25 06:43:14;0.00;0.00;0.62;0.00;0.00;0.62;7.10;6.43;;;30.20;29.50;;;;;;2245851;61;20404;-63
2022/08/25 06:46:07;0.00;0.00;0.62;0.00;0.00;0.62;7.20;6.60;;;30.20;29.30;;;;;;2243370;61;20399;-63
2022/08/25 06:48:53;0.00;0.00;0.62;0.00;0.00;0.62;7.50;6.80;;;30.20;29.30;;;;;;2241146;62;20375;-66
2022/08/25 06:51:38;0.00;0.00;0.62;0.00;0.00;0.62;12.07;8.50;;;30.20;29.30;;;;;;2242024;62;20366;-65
2022/08/25 06:54:24;0.00;0.00;0.62;0.00;0.00;0.62;9.37;8.47;;;30.20;29.30;;;;;;2242396;62;20363;-68
2022/08/25 06:57:09;0.00;0.00;0.62;0.00;0.00;0.62;9.00;8.20;;;30.20;29.60;;;;;;2241986;62;20398;-65
2022/08/25 06:59:54;0.00;0.00;0.62;0.00;0.00;0.62;9.63;8.63;;;30.20;29.90;;;;;;2242072;62;20658;-64
2022/08/25 07:02:39;0.00;0.00;0.62;0.00;0.00;0.62;10.87;8.57;;;30.20;30.00;;;;;;2241837;62;20401;-66
2022/08/25 07:05:23;0.00;0.00;0.62;0.00;0.00;0.62;9.83;8.83;;;30.30;30.00;;;;;;2242275;61;20403;-67
2022/08/25 07:08:10;0.00;0.00;0.62;0.00;0.00;0.62;10.80;8.43;;;30.20;30.00;;;;;;2241913;62;20758;-69
2022/08/25 07:10:57;0.00;0.00;0.62;0.00;0.00;0.62;10.07;8.47;;;30.20;30.00;;;;;;2243520;62;20584;-63
2022/08/25 07:13:42;0.00;0.00;0.62;0.00;0.00;0.62;10.10;8.20;;;30.30;30.20;;;;;;2242278;62;20382;-65
2022/08/25 07:16:28;0.00;0.00;0.62;0.00;0.00;0.62;8.40;7.67;;;30.30;30.80;;;;;;2242237;61;20413;-70
2022/08/25 07:19:13;0.00;0.00;0.62;0.00;0.00;0.62;9.17;8.23;;;30.30;30.10;;;;;;2241793;62;20417;-71
2022/08/25 07:21:58;0.00;0.00;0.62;0.00;0.00;0.62;8.50;7.80;;;30.30;30.00;;;;;;2241809;62;20607;-67
2022/08/25 07:24:43;0.00;0.00;0.62;0.00;0.00;0.62;8.43;7.63;;;30.30;30.00;;;;;;2242087;62;20468;-66
2022/08/25 07:27:30;0.00;0.00;0.62;0.00;0.00;0.62;7.47;6.87;;;30.40;30.00;;;;;;2407957;54;20809;-68
2022/08/25 07:30:18;0.00;0.00;0.62;0.00;0.00;0.62;8.13;7.37;;;30.40;29.90;;;;;;2245883;61;20370;-67
2022/08/25 07:33:03;0.00;0.00;0.62;0.00;0.00;0.62;8.10;7.40;;;30.40;30.00;;;;;;2245728;61;20722;-69
2022/08/25 07:35:48;0.00;0.00;0.62;0.00;0.00;0.62;9.17;8.30;;;30.40;30.00;;;;;;2244337;61;20754;-66
2022/08/25 07:38:32;0.00;0.00;0.62;0.00;0.00;0.62;9.10;7.77;;;30.40;30.20;;;;;;2242013;62;20406;-72
2022/08/25 07:41:17;0.00;0.00;0.62;0.00;0.00;0.62;8.90;8.20;;;30.40;30.10;;;;;;2241239;62;20362;-68
2022/08/25 07:44:04;0.00;0.00;0.62;0.00;0.00;0.62;8.97;8.07;;;30.40;30.00;;;;;;2242002;62;20394;-72
2022/08/25 07:46:50;0.00;0.00;0.62;0.00;0.00;0.62;10.00;9.03;;;30.50;30.40;;;;;;2241847;62;20382;-68
2022/08/25 07:49:36;0.00;0.00;0.62;0.00;0.00;0.62;9.13;8.23;;;30.50;30.40;;;;;;2242218;62;20581;-67
2022/08/25 07:52:21;0.00;0.00;0.62;0.00;0.00;0.62;10.43;8.07;;;30.50;30.40;;;;;;2242002;62;20363;-66
2022/08/25 07:55:07;0.00;0.00;0.62;0.00;0.00;0.62;8.70;7.83;;;30.50;30.30;;;;;;2241429;61;20366;-65
2022/08/25 07:57:53;0.00;0.00;0.62;0.00;0.00;0.62;8.90;8.10;;;30.50;30.20;;;;;;2242284;62;20390;-72
2022/08/25 08:00:40;0.00;0.00;0.62;0.00;0.00;0.62;9.03;7.90;;;30.50;30.20;;;;;;2242000;62;20430;-74
2022/08/25 08:03:25;0.00;0.00;0.62;0.00;0.00;0.62;8.77;8.07;;;30.50;30.40;;;;;;2241532;62;20851;-66
2022/08/25 08:06:13;0.00;0.00;0.62;0.00;0.00;0.62;8.77;7.87;;;30.50;30.30;;;;;;2241702;61;20750;-62
2022/08/25 08:08:59;0.00;0.00;0.62;0.00;0.00;0.62;7.93;7.23;;;30.60;30.30;;;;;;2241977;62;20442;-64
2022/08/25 08:11:45;0.00;0.00;0.62;0.00;0.00;0.62;8.63;7.93;;;30.60;30.30;;;;;;2242004;62;20366;-63
2022/08/25 08:14:30;0.00;0.00;0.62;0.00;0.00;0.62;8.00;7.20;;;30.60;30.50;;;;;;2241830;62;20369;-64
2022/08/25 08:17:17;0.00;0.00;0.62;0.00;0.00;0.62;8.30;7.50;;;30.60;30.40;;;;;;2245203;61;20457;-63
2022/08/25 08:20:07;0.00;0.00;0.62;0.00;0.00;0.62;10.07;8.97;;;30.60;30.50;;;;;;2246131;61;20401;-64
2022/08/25 08:22:52;0.00;0.00;0.62;0.00;0.00;0.62;9.30;8.50;;;30.60;30.60;;;;;;2245871;61;20764;-63
2022/08/25 08:25:36;0.00;0.00;0.62;0.00;0.00;0.62;10.20;8.57;;;30.60;30.50;;;;;;2244074;61;20414;-62
2022/08/25 08:28:22;0.00;0.00;0.62;0.00;0.00;0.62;9.33;8.50;;;30.60;30.60;;;;;;2241944;62;20442;-64
2022/08/25 08:31:08;0.00;0.00;0.62;0.00;0.00;0.62;10.10;9.27;;;30.60;30.70;;;;;;2241827;62;20730;-62
2022/08/25 08:33:56;0.00;0.00;0.62;0.00;0.00;0.62;10.80;8.50;;;30.60;30.80;;;;;;2241962;62;20367;-62
2022/08/25 08:36:41;0.00;0.00;0.62;0.00;0.00;0.62;10.50;9.07;;;30.60;30.90;;;;;;2241284;61;20614;-63
2022/08/25 08:39:28;0.00;0.00;0.62;0.00;0.00;0.62;11.33;9.60;;;30.60;31.00;;;;;;2241503;62;20386;-64
2022/08/25 08:42:30;0.00;0.00;0.62;0.00;0.00;0.62;9.73;8.73;;;30.60;31.00;;;;;;2242152;62;20406;-64
2022/08/25 08:45:30;0.00;0.00;0.62;0.00;0.00;0.62;10.63;9.63;;;30.70;30.90;;;;;;2241819;61;20366;-64
2022/08/25 08:48:38;0.00;0.00;0.62;0.00;0.00;0.62;12.77;8.67;;;30.60;31.00;;;;;;2241883;62;20545;-63
2022/08/25 08:51:30;0.00;0.00;0.62;0.00;0.00;0.62;9.93;8.93;;;30.70;31.30;;;;;;2241760;62;20435;-64
2022/08/25 08:54:22;0.00;0.00;0.62;0.00;0.00;0.62;9.20;8.33;;;30.60;31.40;;;;;;2241057;62;20454;-63
2022/08/25 08:57:15;0.00;0.00;0.62;0.00;0.00;0.62;10.17;8.07;;;30.60;31.50;;;;;;2241991;62;20475;-64
2022/08/25 09:00:04;0.00;0.00;0.62;0.00;0.00;0.62;11.13;8.63;;;30.60;31.20;;;;;;2241818;62;20382;-63
2022/08/25 09:02:55;0.00;0.00;0.62;0.00;0.00;0.62;10.10;8.50;;;30.70;31.40;;;;;;2241458;62;20423;-63
2022/08/25 09:05:48;0.00;0.00;0.62;0.00;0.00;0.62;9.13;8.20;;;30.70;31.20;;;;;;2241618;61;20379;-65
2022/08/25 09:08:36;0.00;0.00;0.62;0.00;0.00;0.62;9.10;8.30;;;30.70;31.10;;;;;;2241374;62;20638;-64
2022/08/25 09:11:31;0.00;0.00;0.62;0.00;0.00;0.62;10.50;8.40;;;30.70;31.30;;;;;;2241625;62;20390;-63
2022/08/25 09:14:37;0.00;0.00;0.62;0.00;0.00;0.62;10.80;8.70;;;30.70;31.40;;;;;;2241662;62;20371;-64
2022/08/25 09:17:45;0.00;0.00;0.62;0.00;0.00;0.62;9.90;8.97;;;30.70;31.50;;;;;;2623293;46;20435;-64
2022/08/25 09:20:47;0.00;0.00;0.62;0.00;0.00;0.62;10.40;9.40;;;30.70;31.40;;;;;;2241508;62;20455;-63
2022/08/25 09:23:48;0.00;0.00;0.62;0.00;0.00;0.62;10.23;9.10;;;30.70;31.70;;;;;;2241404;62;20370;-65
2022/08/25 09:26:39;0.00;0.00;0.62;0.00;0.00;0.62;12.70;9.00;;;30.70;31.70;;;;;;2241851;61;20382;-62
2022/08/25 09:29:29;0.00;0.00;0.62;0.00;0.00;0.62;10.40;9.40;;;30.80;31.90;;;;;;2671201;46;20371;-62
2022/08/25 09:32:15;0.00;0.00;0.62;0.00;0.00;0.62;9.80;8.90;;;30.80;31.90;;;;;;2237486;62;20371;-63
2022/08/25 09:35:02;0.00;0.00;0.62;0.00;0.00;0.62;10.63;9.53;;;30.80;31.90;;;;;;2237740;61;20359;-63
2022/08/25 09:37:58;0.00;0.00;0.62;0.00;0.00;0.62;9.90;9.03;;;30.80;31.90;;;;;;2241672;62;20601;-65
2022/08/25 09:40:48;0.00;0.00;0.62;0.00;0.00;0.62;9.17;8.27;;;30.80;31.80;;;;;;2241875;62;20390;-65
2022/08/25 09:43:36;0.00;0.00;0.62;0.00;0.00;0.62;10.70;8.50;;;30.80;31.70;;;;;;2241622;62;20374;-64
2022/08/25 09:46:26;0.00;0.00;0.62;0.00;0.00;0.62;13.00;9.90;;;30.90;31.80;;;;;;2243727;61;20369;-63
2022/08/25 09:49:12;0.00;0.00;0.62;0.00;0.00;0.62;14.27;9.60;;;30.90;32.20;;;;;;2246019;61;20647;-63
2022/08/25 09:52:25;0.00;0.00;0.62;0.00;0.00;0.62;9.93;9.03;;;30.90;32.30;;;;;;2245955;61;20362;-64
2022/08/25 09:55:30;0.00;0.00;0.62;0.00;0.00;0.62;9.37;8.47;;;30.90;32.00;;;;;;2244827;61;20590;-63
2022/08/25 09:58:23;0.00;0.00;0.62;0.00;0.00;0.62;9.73;8.20;;;30.90;32.00;;;;;;2241456;62;20427;-64
2022/08/25 10:01:15;0.00;0.00;0.62;0.00;0.00;0.62;9.30;8.30;;;30.90;31.80;;;;;;2241231;62;20370;-65
2022/08/25 10:04:03;0.00;0.00;0.62;0.00;0.00;0.62;8.57;7.80;;;31.00;31.80;;;;;;2241585;62;20366;-65
2022/08/25 10:06:49;0.00;0.00;0.62;0.00;0.00;0.62;9.80;8.90;;;31.00;32.10;;;;;;2241640;62;20393;-64
2022/08/25 10:09:39;0.00;0.00;0.62;0.00;0.00;0.62;10.40;8.87;;;31.00;32.00;;;;;;2241554;62;20374;-65
2022/08/25 10:12:35;0.00;0.00;0.62;0.00;0.00;0.62;10.50;8.57;;;31.00;31.90;;;;;;2241568;62;20362;-64
2022/08/25 10:15:26;0.00;0.00;0.62;0.00;0.00;0.62;9.57;8.07;;;31.00;31.90;;;;;;2241080;61;20719;-64
2022/08/25 10:18:25;0.00;0.00;0.62;0.00;0.00;0.62;8.47;7.67;;;31.10;31.80;;;;;;2241869;62;20391;-65
2022/08/25 10:21:14;0.00;0.00;0.62;0.00;0.00;0.62;9.40;8.40;;;31.10;31.70;;;;;;2241451;62;20370;-65
2022/08/25 10:24:01;0.00;0.00;0.62;0.00;0.00;0.62;9.20;8.30;;;31.10;32.00;;;;;;2240838;62;20394;-63
2022/08/25 10:26:57;0.00;0.00;0.62;0.00;0.00;0.62;9.87;8.13;;;31.10;32.10;;;;;;2241898;61;20595;-65
2022/08/25 10:30:16;0.00;0.00;0.62;0.00;0.00;0.62;9.60;8.50;;;31.10;32.10;;;;;;2242903;62;20406;-64
2022/08/25 10:33:18;0.00;0.00;0.62;0.00;0.00;0.62;10.17;9.20;;;31.10;32.20;;;;;;2243204;62;20713;-64
2022/08/25 10:36:13;0.00;0.00;0.62;0.00;0.00;0.62;9.60;8.70;;;31.10;32.60;;;;;;2242774;61;20491;-64
2022/08/25 10:39:01;0.00;0.00;0.62;0.00;0.00;0.62;9.47;8.40;;;31.20;32.80;;;;;;2242439;62;20661;-63
2022/08/25 10:41:59;0.00;0.00;0.62;0.00;0.00;0.62;10.83;9.63;;;31.20;32.40;;;;;;2243014;62;20374;-63
2022/08/25 10:48:49;0.00;0.00;0.62;0.00;0.00;0.62;11.53;9.63;;;31.20;32.60;;;;;;2242697;62;20600;-64
2022/08/25 10:51:51;0.00;0.00;0.62;0.00;0.00;0.62;9.80;8.80;;;31.20;32.60;;;;;;2242932;62;20374;-64
2022/08/25 10:54:45;0.00;0.00;0.62;0.00;0.00;0.62;10.03;8.70;;;31.20;32.80;;;;;;2243076;62;20417;-64
2022/08/25 10:57:39;0.00;0.00;0.62;0.00;0.00;0.62;10.60;9.53;;;31.20;32.90;;;;;;2603433;46;20462;-64
2022/08/25 11:00:32;0.00;0.00;0.62;0.00;0.00;0.62;9.40;8.50;;;31.20;32.90;;;;;;2242412;62;20389;-63
2022/08/25 11:03:46;0.00;0.00;0.62;0.00;0.00;0.62;10.10;8.20;;;31.30;33.10;;;;;;2243087;62;20374;-64
2022/08/25 11:06:42;0.00;0.00;0.62;0.00;0.00;0.62;13.53;9.60;;;31.30;33.80;;;;;;2242539;61;20599;-64
2022/08/25 11:09:33;0.00;0.00;0.62;0.00;0.00;0.62;9.60;8.60;;;31.30;33.30;;;;;;2243124;62;20394;-64
2022/08/25 11:12:29;0.00;0.00;0.62;0.00;0.00;0.62;13.00;9.50;;;31.30;33.40;;;;;;2242730;62;20370;-63